createdAt,value
2023-01-25T00:02:08.604Z,1.90
2023-01-25T00:04:35.528Z,2.00
2023-01-25T00:07:02.301Z,2.20
2023-01-25T00:09:29.010Z,2.10
2023-01-25T00:11:57.968Z,2.10
2023-01-25T00:14:24.945Z,1.90
2023-01-25T00:16:51.956Z,2.00
2023-01-25T00:19:18.996Z,2.10
2023-01-25T00:21:45.723Z,2.20
2023-01-25T00:24:14.319Z,2.20
2023-01-25T00:26:44.070Z,2.30
2023-01-25T00:29:14.618Z,2.20
2023-01-25T00:31:49.304Z,2.20
2023-01-25T00:34:24.874Z,2.20
2023-01-25T00:37:01.164Z,2.20
2023-01-25T00:39:28.660Z,2.20
2023-01-25T00:41:55.862Z,2.30
2023-01-25T00:44:22.592Z,2.30
2023-01-25T00:46:49.516Z,2.30
2023-01-25T00:49:22.112Z,2.30
2023-01-25T00:51:49.736Z,2.30
2023-01-25T00:54:16.913Z,2.20
2023-01-25T00:56:43.830Z,2.20
2023-01-25T00:59:11.174Z,2.20
2023-01-25T01:01:38.329Z,2.00
2023-01-25T01:04:06.581Z,2.20
2023-01-25T01:06:36.310Z,2.20
2023-01-25T01:09:04.224Z,2.10
2023-01-25T01:11:31.775Z,2.30
2023-01-25T01:13:59.636Z,2.20
2023-01-25T01:16:27.345Z,2.00
2023-01-25T01:18:54.409Z,1.90
2023-01-25T01:21:21.792Z,1.80
2023-01-25T01:23:48.670Z,1.80
2023-01-25T01:26:19.277Z,1.60
2023-01-25T01:28:46.358Z,1.80
2023-01-25T01:31:19.245Z,1.90
2023-01-25T01:33:50.290Z,2.00
2023-01-25T01:36:18.855Z,2.00
2023-01-25T01:38:46.065Z,2.00
2023-01-25T01:41:13.707Z,2.10
2023-01-25T01:43:40.679Z,2.20
2023-01-25T01:46:33.388Z,2.20
2023-01-25T01:49:21.200Z,2.10
2023-01-25T01:51:53.327Z,1.70
2023-01-25T01:54:37.532Z,1.80
2023-01-25T01:57:14.901Z,1.90
2023-01-25T01:59:50.003Z,2.00
2023-01-25T02:02:17.051Z,2.00
2023-01-25T02:04:46.704Z,1.90
2023-01-25T02:07:35.114Z,1.80
2023-01-25T02:10:06.602Z,1.80
2023-01-25T02:12:34.931Z,1.90
2023-01-25T02:15:01.954Z,2.00
2023-01-25T02:17:35.656Z,2.00
2023-01-25T02:20:12.873Z,1.90
2023-01-25T02:22:47.594Z,1.30
2023-01-25T02:25:16.506Z,1.40
2023-01-25T02:28:09.986Z,1.70
2023-01-25T02:30:36.705Z,1.70
2023-01-25T02:33:03.525Z,1.80
2023-01-25T02:35:46.228Z,1.40
2023-01-25T02:38:15.896Z,1.20
2023-01-25T02:40:57.658Z,1.20
2023-01-25T02:43:28.176Z,1.30
2023-01-25T02:46:06.256Z,1.60
2023-01-25T02:48:33.021Z,1.70
2023-01-25T02:50:59.711Z,1.80
2023-01-25T02:53:27.515Z,1.80
2023-01-25T02:55:54.230Z,1.90
2023-01-25T02:58:21.039Z,1.90
2023-01-25T03:00:48.033Z,1.90
2023-01-25T03:03:14.810Z,1.80
2023-01-25T03:05:41.488Z,1.80
2023-01-25T03:08:08.236Z,1.80
2023-01-25T03:10:35.010Z,1.80
2023-01-25T03:13:01.769Z,1.70
2023-01-25T03:15:28.452Z,1.70
2023-01-25T03:17:56.784Z,1.80
2023-01-25T03:20:23.509Z,1.80
2023-01-25T03:22:50.313Z,1.70
2023-01-25T03:25:17.120Z,1.60
2023-01-25T03:27:43.795Z,1.50
2023-01-25T03:30:11.084Z,1.50
2023-01-25T03:32:38.239Z,1.60
2023-01-25T03:35:06.410Z,1.50
2023-01-25T03:37:34.206Z,1.20
2023-01-25T03:40:01.267Z,1.30
2023-01-25T03:42:28.023Z,1.40
2023-01-25T03:44:54.720Z,1.50
2023-01-25T03:47:21.492Z,1.60
2023-01-25T03:49:48.211Z,1.70
2023-01-25T03:52:14.906Z,1.70
2023-01-25T03:54:41.907Z,1.80
2023-01-25T03:57:08.668Z,1.70
2023-01-25T03:59:35.416Z,1.70
2023-01-25T04:02:03.043Z,1.80
2023-01-25T04:04:29.940Z,1.80
2023-01-25T04:06:56.684Z,1.80
2023-01-25T04:09:23.500Z,1.80
2023-01-25T04:11:51.339Z,1.80
2023-01-25T04:14:25.526Z,1.20
2023-01-25T04:16:58.599Z,0.90
2023-01-25T04:19:25.296Z,0.70
2023-01-25T04:21:52.016Z,0.80
2023-01-25T04:24:18.826Z,0.90
2023-01-25T04:26:45.550Z,1.10
2023-01-25T04:29:12.983Z,1.00
2023-01-25T04:31:39.802Z,0.80
2023-01-25T04:34:06.742Z,0.60
2023-01-25T04:36:33.452Z,0.60
2023-01-25T04:39:00.219Z,0.80
2023-01-25T04:41:29.148Z,1.00
2023-01-25T04:43:55.945Z,0.90
2023-01-25T04:46:22.653Z,0.70
2023-01-25T04:48:49.360Z,0.80
2023-01-25T04:51:16.069Z,0.80
2023-01-25T04:53:42.777Z,0.70
2023-01-25T04:56:09.531Z,0.60
2023-01-25T04:58:36.330Z,0.40
2023-01-25T05:01:03.428Z,0.30
2023-01-25T05:03:30.391Z,0.50
2023-01-25T05:05:57.153Z,0.80
2023-01-25T05:08:24.073Z,1.10
2023-01-25T05:10:50.792Z,1.10
2023-01-25T05:13:17.561Z,0.90
2023-01-25T05:15:44.302Z,0.80
2023-01-25T05:18:11.097Z,1.00
2023-01-25T05:20:37.869Z,1.00
2023-01-25T05:23:04.574Z,1.10
2023-01-25T05:25:49.826Z,0.80
2023-01-25T05:28:16.573Z,0.80
2023-01-25T05:30:43.282Z,0.90
2023-01-25T05:33:10.038Z,1.10
2023-01-25T05:35:36.746Z,1.10
2023-01-25T05:38:03.772Z,1.30
2023-01-25T05:40:30.553Z,1.30
2023-01-25T05:42:58.681Z,1.30
2023-01-25T05:45:26.108Z,1.10
2023-01-25T05:47:57.669Z,1.30
2023-01-25T05:50:25.545Z,1.30
2023-01-25T05:52:52.229Z,1.40
2023-01-25T05:55:19.013Z,1.30
2023-01-25T05:57:45.823Z,1.30
2023-01-25T06:00:13.017Z,1.00
2023-01-25T06:02:39.999Z,0.80
2023-01-25T06:05:07.595Z,0.60
2023-01-25T06:07:36.361Z,0.80
2023-01-25T06:10:05.014Z,0.90
2023-01-25T06:12:33.154Z,1.00
2023-01-25T06:14:59.841Z,1.10
2023-01-25T06:17:26.729Z,1.30
2023-01-25T06:19:53.402Z,1.20
2023-01-25T06:22:20.135Z,1.30
2023-01-25T06:24:46.851Z,1.40
2023-01-25T06:27:13.584Z,1.30
2023-01-25T06:29:40.355Z,1.20
2023-01-25T06:32:07.145Z,1.30
2023-01-25T06:34:33.913Z,1.20
2023-01-25T06:37:00.635Z,1.30
2023-01-25T06:39:27.411Z,1.50
2023-01-25T06:41:55.044Z,1.30
2023-01-25T06:44:21.920Z,1.50
2023-01-25T06:46:48.752Z,1.50
2023-01-25T06:49:15.576Z,1.50
2023-01-25T06:51:42.326Z,1.50
2023-01-25T06:54:09.026Z,1.40
2023-01-25T06:56:36.392Z,1.40
2023-01-25T06:59:03.293Z,1.50
2023-01-25T07:01:30.743Z,1.60
2023-01-25T07:03:59.292Z,1.60
2023-01-25T07:06:32.151Z,1.60
2023-01-25T07:09:06.199Z,1.50
2023-01-25T07:11:33.164Z,1.50
2023-01-25T07:14:00.403Z,1.50
2023-01-25T07:16:27.595Z,1.40
2023-01-25T07:18:55.118Z,1.40
2023-01-25T07:21:23.614Z,1.20
2023-01-25T07:23:51.524Z,1.20
2023-01-25T07:26:21.237Z,1.10
2023-01-25T07:28:48.880Z,1.10
2023-01-25T07:31:16.985Z,1.20
2023-01-25T07:33:44.007Z,1.30
2023-01-25T07:36:11.579Z,1.00
2023-01-25T07:38:38.412Z,1.10
2023-01-25T07:41:05.670Z,1.30
2023-01-25T07:43:32.569Z,1.30
2023-01-25T07:46:13.067Z,1.20
2023-01-25T07:48:41.250Z,1.30
2023-01-25T07:51:13.035Z,1.30
2023-01-25T07:53:41.491Z,1.30
2023-01-25T07:56:09.622Z,1.40
2023-01-25T07:58:36.669Z,1.00
2023-01-25T08:01:17.936Z,1.20
2023-01-25T08:03:45.912Z,1.20
2023-01-25T08:06:13.235Z,1.20
2023-01-25T08:08:45.323Z,1.20
2023-01-25T08:11:22.263Z,1.10
2023-01-25T08:13:50.103Z,1.10
2023-01-25T08:16:21.913Z,1.10
2023-01-25T08:18:54.847Z,1.30
2023-01-25T08:21:24.297Z,1.40
2023-01-25T08:23:51.637Z,1.20
2023-01-25T08:26:18.658Z,1.20
2023-01-25T08:28:45.510Z,1.30
2023-01-25T08:31:19.085Z,1.30
2023-01-25T08:33:46.884Z,1.20
2023-01-25T08:36:15.508Z,1.40
2023-01-25T08:38:42.566Z,1.40
2023-01-25T08:41:12.388Z,1.30
2023-01-25T08:43:39.365Z,1.20
2023-01-25T08:46:07.040Z,0.90
2023-01-25T08:48:34.238Z,0.70
2023-01-25T08:51:01.020Z,1.00
2023-01-25T08:53:29.185Z,1.00
2023-01-25T08:55:55.912Z,1.10
2023-01-25T08:58:22.700Z,1.10
2023-01-25T09:00:49.918Z,0.90
2023-01-25T09:03:18.257Z,1.00
2023-01-25T09:05:45.283Z,1.20
2023-01-25T09:08:12.028Z,1.10
2023-01-25T09:10:38.802Z,1.10
2023-01-25T09:13:07.755Z,1.20
2023-01-25T09:15:35.472Z,1.20
2023-01-25T09:18:02.277Z,1.20
2023-01-25T09:20:31.707Z,1.20
2023-01-25T09:23:01.066Z,1.30
2023-01-25T09:25:27.963Z,1.10
2023-01-25T09:27:54.777Z,1.20
2023-01-25T09:30:24.673Z,0.80
2023-01-25T09:32:57.456Z,0.70
2023-01-25T09:35:24.348Z,0.80
2023-01-25T09:37:52.622Z,0.60
2023-01-25T09:40:22.293Z,0.70
2023-01-25T09:43:03.992Z,0.50
2023-01-25T09:45:32.618Z,0.30
2023-01-25T09:48:14.140Z,0.00
2023-01-25T09:51:02.094Z,0.00
2023-01-25T09:53:41.046Z,0.10
2023-01-25T09:56:17.606Z,0.40
2023-01-25T09:58:47.649Z,0.40
2023-01-25T10:01:38.561Z,0.60
2023-01-25T10:04:35.663Z,0.60
2023-01-25T10:07:22.239Z,0.50
2023-01-25T10:10:02.614Z,0.60
2023-01-25T10:12:36.763Z,0.20
2023-01-25T10:15:21.284Z,0.60
2023-01-25T10:18:21.529Z,0.50
2023-01-25T10:21:33.612Z,0.90
2023-01-25T10:24:24.853Z,0.90
2023-01-25T10:27:07.874Z,0.80
2023-01-25T10:29:37.451Z,0.50
2023-01-25T10:32:28.255Z,0.40
2023-01-25T10:34:58.286Z,0.60
2023-01-25T10:37:32.641Z,0.60
2023-01-25T10:40:22.718Z,0.50
2023-01-25T10:43:00.597Z,0.60
2023-01-25T10:45:27.331Z,1.00
2023-01-25T10:48:03.552Z,1.10
2023-01-25T10:50:41.023Z,1.20
2023-01-25T10:53:22.246Z,1.20
2023-01-25T10:56:13.232Z,1.20
2023-01-25T10:58:42.549Z,1.10
2023-01-25T11:01:14.231Z,0.70
2023-01-25T11:03:46.329Z,0.70
2023-01-25T11:06:13.279Z,0.80
2023-01-25T11:08:43.123Z,1.10
2023-01-25T11:11:36.592Z,1.20
2023-01-25T11:14:16.375Z,1.10
2023-01-25T11:16:47.989Z,1.00
2023-01-25T11:19:35.723Z,1.20
2023-01-25T11:22:19.057Z,1.10
2023-01-25T11:24:46.511Z,1.20
2023-01-25T11:27:24.941Z,0.80
2023-01-25T11:30:15.966Z,0.30
2023-01-25T11:32:43.008Z,0.20
2023-01-25T11:35:21.016Z,0.20
2023-01-25T11:37:56.916Z,0.30
2023-01-25T11:40:41.750Z,0.50
2023-01-25T11:43:11.492Z,0.40
2023-01-25T11:45:46.532Z,0.50
2023-01-25T11:48:33.404Z,0.70
2023-01-25T11:51:08.945Z,1.00
2023-01-25T11:53:51.263Z,1.10
2023-01-25T11:56:42.663Z,1.00
2023-01-25T11:59:15.087Z,0.50
2023-01-25T12:01:48.085Z,0.20
2023-01-25T12:04:39.571Z,0.20
2023-01-25T12:07:14.061Z,0.30
2023-01-25T12:10:34.922Z,0.40
2023-01-25T12:13:22.139Z,0.70
2023-01-25T12:16:06.201Z,0.90
2023-01-25T12:18:47.349Z,0.60
2023-01-25T12:21:26.367Z,0.50
2023-01-25T12:24:17.160Z,0.40
2023-01-25T12:27:07.688Z,0.60
2023-01-25T12:29:44.691Z,0.50
2023-01-25T12:32:19.216Z,0.40
2023-01-25T12:35:04.030Z,0.40
2023-01-25T12:37:39.694Z,0.30
2023-01-25T12:40:14.698Z,0.40
2023-01-25T12:42:52.131Z,0.60
2023-01-25T12:45:31.647Z,0.40
2023-01-25T12:48:13.964Z,0.30
2023-01-25T12:50:45.275Z,0.00
2023-01-25T12:53:23.334Z,0.20
2023-01-25T12:55:50.729Z,0.30
2023-01-25T12:58:37.450Z,0.50
2023-01-25T13:01:26.500Z,0.80
2023-01-25T13:04:20.125Z,0.70
2023-01-25T13:07:10.248Z,0.40
2023-01-25T13:10:10.540Z,0.40
2023-01-25T13:12:55.852Z,0.20
2023-01-25T13:15:40.357Z,0.30
2023-01-25T13:18:36.666Z,0.10
2023-01-25T13:21:11.488Z,0.00
2023-01-25T13:23:44.124Z,0.10
2023-01-25T13:26:26.214Z,0.20
2023-01-25T13:28:54.908Z,0.50
2023-01-25T13:31:51.667Z,0.60
2023-01-25T13:34:39.033Z,0.70
2023-01-25T13:37:31.104Z,0.90
2023-01-25T13:40:29.345Z,0.50
2023-01-25T13:43:13.239Z,0.60
2023-01-25T13:45:41.613Z,0.60
2023-01-25T13:48:21.978Z,0.70
2023-01-25T13:51:16.541Z,0.40
2023-01-25T13:53:55.726Z,0.40
2023-01-25T13:56:34.248Z,0.20
2023-01-25T13:59:01.501Z,0.20
2023-01-25T14:01:31.910Z,-0.20
2023-01-25T14:04:04.576Z,-0.30
2023-01-25T14:06:40.500Z,-0.40
2023-01-25T14:09:17.200Z,-0.20
2023-01-25T14:12:04.298Z,-0.10
2023-01-25T14:14:34.284Z,0.20
2023-01-25T14:17:16.854Z,0.00
2023-01-25T14:19:48.763Z,0.30
2023-01-25T14:22:32.349Z,0.10
2023-01-25T14:25:12.757Z,0.20
2023-01-25T14:27:50.965Z,0.50
2023-01-25T14:30:30.596Z,0.70
2023-01-25T14:33:19.322Z,0.80
2023-01-25T14:35:55.630Z,0.90
2023-01-25T14:38:25.273Z,0.90
2023-01-25T14:40:59.294Z,0.90
2023-01-25T14:43:26.833Z,1.00
2023-01-25T14:45:54.001Z,1.10
2023-01-25T14:48:42.097Z,0.60
2023-01-25T14:51:14.286Z,0.40
2023-01-25T14:53:44.626Z,0.60
2023-01-25T14:56:39.541Z,0.30
2023-01-25T14:59:07.236Z,0.00
2023-01-25T15:01:41.128Z,-0.20
2023-01-25T15:04:12.929Z,-0.30
2023-01-25T15:06:50.796Z,-0.20
2023-01-25T15:09:42.983Z,-0.10
2023-01-25T15:12:41.999Z,-0.20
2023-01-25T15:15:20.995Z,0.00
2023-01-25T15:17:50.845Z,0.20
2023-01-25T15:20:28.242Z,0.40
2023-01-25T15:22:57.167Z,0.00
2023-01-25T15:25:24.698Z,-0.20
2023-01-25T15:27:51.920Z,0.20
2023-01-25T15:30:19.269Z,0.30
2023-01-25T15:32:46.611Z,0.50
2023-01-25T15:35:21.642Z,0.70
2023-01-25T15:37:49.498Z,0.80
2023-01-25T15:40:17.124Z,0.60
2023-01-25T15:42:44.031Z,0.40
2023-01-25T15:45:11.210Z,0.60
2023-01-25T15:47:38.718Z,0.60
2023-01-25T15:50:06.470Z,0.60
2023-01-25T15:52:33.238Z,0.70
2023-01-25T15:55:02.105Z,0.80
2023-01-25T15:57:34.547Z,0.70
2023-01-25T16:00:02.433Z,0.10
2023-01-25T16:02:29.384Z,0.20
2023-01-25T16:04:56.170Z,0.40
2023-01-25T16:07:29.077Z,0.70
2023-01-25T16:09:55.816Z,0.50
2023-01-25T16:12:22.757Z,0.60
2023-01-25T16:14:49.527Z,0.50
2023-01-25T16:17:19.106Z,0.30
2023-01-25T16:19:47.822Z,0.40
2023-01-25T16:22:18.634Z,0.20
2023-01-25T16:24:45.969Z,0.40
2023-01-25T16:27:22.700Z,0.20
2023-01-25T16:29:49.525Z,0.10
2023-01-25T16:32:16.374Z,0.10
2023-01-25T16:34:43.126Z,0.30
2023-01-25T16:37:17.270Z,0.40
2023-01-25T16:39:44.527Z,0.50
2023-01-25T16:42:11.707Z,0.50
2023-01-25T16:44:38.976Z,0.30
2023-01-25T16:47:05.862Z,0.30
2023-01-25T16:49:33.479Z,0.00
2023-01-25T16:52:02.859Z,0.20
2023-01-25T16:54:29.673Z,0.40
2023-01-25T16:56:56.786Z,0.40
2023-01-25T16:59:24.624Z,0.50
2023-01-25T17:01:51.989Z,0.60
2023-01-25T17:04:19.176Z,0.70
2023-01-25T17:06:49.325Z,0.80
2023-01-25T17:09:24.826Z,0.60
2023-01-25T17:11:55.354Z,0.20
2023-01-25T17:14:22.419Z,0.20
2023-01-25T17:16:51.529Z,0.10
2023-01-25T17:19:19.460Z,0.20
2023-01-25T17:21:46.573Z,0.50
2023-01-25T17:24:16.488Z,0.70
2023-01-25T17:26:43.277Z,0.70
2023-01-25T17:29:10.432Z,0.70
2023-01-25T17:31:37.606Z,0.70
2023-01-25T17:34:07.179Z,0.70
2023-01-25T17:36:34.113Z,0.60
2023-01-25T17:39:08.309Z,0.30
2023-01-25T17:41:35.196Z,0.10
2023-01-25T17:44:02.641Z,0.10
2023-01-25T17:46:35.093Z,0.00
2023-01-25T17:49:03.238Z,0.00
2023-01-25T17:51:31.460Z,0.20
2023-01-25T17:53:58.391Z,0.20
2023-01-25T17:56:25.904Z,0.10
2023-01-25T17:58:53.156Z,0.00
2023-01-25T18:01:25.713Z,0.30
2023-01-25T18:03:53.891Z,-0.10
2023-01-25T18:06:24.950Z,-0.30
2023-01-25T18:08:54.208Z,-0.20
2023-01-25T18:11:24.769Z,-0.30
2023-01-25T18:13:57.830Z,-0.40
2023-01-25T18:16:26.903Z,-0.30
2023-01-25T18:18:55.574Z,-0.20
2023-01-25T18:21:25.456Z,-0.10
2023-01-25T18:23:55.268Z,0.10
2023-01-25T18:26:27.920Z,0.40
2023-01-25T18:28:59.555Z,0.20
2023-01-25T18:31:26.637Z,0.20
2023-01-25T18:33:53.473Z,0.10
2023-01-25T18:36:20.510Z,0.30
2023-01-25T18:38:47.255Z,0.10
2023-01-25T18:41:14.041Z,0.20
2023-01-25T18:43:40.869Z,0.30
2023-01-25T18:46:07.857Z,0.30
2023-01-25T18:48:34.707Z,0.30
2023-01-25T18:51:07.987Z,0.10
2023-01-25T18:53:36.363Z,0.20
2023-01-25T18:56:07.845Z,0.10
2023-01-25T18:58:36.409Z,0.00
2023-01-25T19:01:20.933Z,-0.10
2023-01-25T19:03:49.617Z,-0.20
2023-01-25T19:06:17.150Z,-0.10
2023-01-25T19:08:46.507Z,-0.20
2023-01-25T19:11:19.908Z,-0.30
2023-01-25T19:13:46.756Z,-0.30
2023-01-25T19:16:19.629Z,-0.20
2023-01-25T19:18:49.902Z,-0.20
2023-01-25T19:21:19.987Z,0.00
2023-01-25T19:23:47.379Z,0.00
2023-01-25T19:26:17.230Z,-0.10
2023-01-25T19:28:44.526Z,0.00
2023-01-25T19:31:15.994Z,-0.10
2023-01-25T19:33:43.543Z,0.00
2023-01-25T19:36:16.754Z,-0.30
2023-01-25T19:38:44.375Z,-0.40
2023-01-25T19:41:13.242Z,-0.40
2023-01-25T19:43:43.748Z,-0.40
2023-01-25T19:46:14.830Z,-0.40
2023-01-25T19:48:42.487Z,-0.40
2023-01-25T19:51:15.154Z,-0.30
2023-01-25T19:53:47.482Z,-0.30
2023-01-25T19:56:16.279Z,-0.20
2023-01-25T19:58:47.432Z,-0.20
2023-01-25T20:01:16.664Z,-0.40
2023-01-25T20:03:44.021Z,-0.20
2023-01-25T20:06:12.207Z,-0.10
2023-01-25T20:08:41.052Z,-0.10
2023-01-25T20:11:17.534Z,0.00
2023-01-25T20:13:44.296Z,0.00
2023-01-25T20:16:12.613Z,0.20
2023-01-25T20:18:40.038Z,0.20
2023-01-25T20:21:19.356Z,0.30
2023-01-25T20:23:48.919Z,0.20
2023-01-25T20:26:18.351Z,-0.10
2023-01-25T20:28:47.534Z,0.00
2023-01-25T20:31:35.003Z,-0.10
2023-01-25T20:34:07.687Z,-0.10
2023-01-25T20:36:35.866Z,-0.20
2023-01-25T20:39:03.005Z,0.00
2023-01-25T20:41:29.772Z,0.10
2023-01-25T20:44:02.037Z,0.10
2023-01-25T20:46:33.659Z,0.00
2023-01-25T20:49:04.030Z,0.00
2023-01-25T20:51:30.874Z,0.20
2023-01-25T20:54:00.044Z,-0.10
2023-01-25T20:56:27.116Z,0.00
2023-01-25T20:58:54.978Z,0.10
2023-01-25T21:01:29.525Z,0.20
2023-01-25T21:03:57.857Z,0.30
2023-01-25T21:06:26.254Z,0.20
2023-01-25T21:08:53.115Z,0.20
2023-01-25T21:11:20.399Z,0.10
2023-01-25T21:13:48.155Z,0.20
2023-01-25T21:16:21.683Z,0.20
2023-01-25T21:18:57.697Z,-0.10
2023-01-25T21:21:29.237Z,-0.10
2023-01-25T21:23:59.677Z,-0.20
2023-01-25T21:26:29.544Z,-0.10
2023-01-25T21:28:58.134Z,-0.10
2023-01-25T21:31:30.831Z,-0.20
2023-01-25T21:33:57.635Z,-0.20
2023-01-25T21:36:25.279Z,-0.30
2023-01-25T21:38:53.888Z,-0.50
2023-01-25T21:41:24.428Z,-0.50
2023-01-25T21:44:11.847Z,-0.40
2023-01-25T21:46:39.257Z,-0.50
2023-01-25T21:49:26.706Z,-0.50
2023-01-25T21:51:55.917Z,-0.50
2023-01-25T21:54:27.176Z,-0.60
2023-01-25T21:56:56.483Z,-0.60
2023-01-25T21:59:23.971Z,-0.50
2023-01-25T22:01:51.564Z,-0.50
2023-01-25T22:04:20.319Z,-0.60
2023-01-25T22:06:54.512Z,-0.50
2023-01-25T22:09:22.723Z,-0.50
2023-01-25T22:11:50.831Z,-0.30
2023-01-25T22:14:24.425Z,-0.40
2023-01-25T22:16:52.045Z,-0.30
2023-01-25T22:19:19.291Z,-0.50
2023-01-25T22:21:46.114Z,-0.50
2023-01-25T22:24:13.592Z,-0.40
2023-01-25T22:26:43.405Z,-0.30
2023-01-25T22:29:10.223Z,-0.50
2023-01-25T22:31:37.145Z,-0.30
2023-01-25T22:34:04.348Z,-0.40
2023-01-25T22:36:31.777Z,-0.40
2023-01-25T22:39:00.329Z,-0.40
2023-01-25T22:41:30.658Z,-0.30
2023-01-25T22:43:57.969Z,-0.50
2023-01-25T22:46:27.638Z,-0.50
2023-01-25T22:48:54.983Z,-0.50
2023-01-25T22:51:29.558Z,-0.30
2023-01-25T22:53:57.700Z,-0.30
2023-01-25T22:56:34.144Z,-0.20
2023-01-25T22:59:01.481Z,-0.30
2023-01-25T23:01:33.669Z,-0.40
2023-01-25T23:04:01.816Z,-0.40
2023-01-25T23:06:30.490Z,-0.30
2023-01-25T23:09:00.053Z,-0.50
2023-01-25T23:11:32.176Z,-0.50
2023-01-25T23:14:18.635Z,-0.30
2023-01-25T23:16:45.904Z,-0.40
2023-01-25T23:19:12.859Z,-0.40
2023-01-25T23:21:39.701Z,-0.40
2023-01-25T23:24:06.957Z,-0.40
2023-01-25T23:26:39.019Z,-0.20
2023-01-25T23:29:09.133Z,-0.20
2023-01-25T23:31:36.682Z,-0.50
2023-01-25T23:34:05.319Z,-0.40
2023-01-25T23:36:34.901Z,-0.30
2023-01-25T23:39:02.702Z,-0.40
2023-01-25T23:41:30.274Z,-0.30
2023-01-25T23:43:58.023Z,-0.40
2023-01-25T23:46:25.307Z,-0.30
2023-01-25T23:48:52.303Z,-0.40
2023-01-25T23:51:19.829Z,-0.60
2023-01-25T23:53:47.421Z,-0.60
2023-01-25T23:56:20.167Z,-0.60
2023-01-25T23:58:48.038Z,-0.40
